createdAt,value
2023-07-29T00:00:33.358Z,18.00
2023-07-29T00:03:03.830Z,19.00
2023-07-29T00:05:33.850Z,18.40
2023-07-29T00:08:04.271Z,18.40
2023-07-29T00:10:40.542Z,18.10
2023-07-29T00:13:14.678Z,19.00
2023-07-29T00:15:49.741Z,19.00
2023-07-29T00:18:23.064Z,18.70
2023-07-29T00:20:55.695Z,19.00
2023-07-29T00:23:29.719Z,19.00
2023-07-29T00:26:01.460Z,18.90
2023-07-29T00:28:45.025Z,18.00
2023-07-29T00:31:19.426Z,18.60
2023-07-29T00:33:50.920Z,18.70
2023-07-29T00:36:26.697Z,18.50
2023-07-29T00:39:02.609Z,18.60
2023-07-29T00:41:33.274Z,18.60
2023-07-29T00:44:17.332Z,18.60
2023-07-29T00:46:53.601Z,18.30
2023-07-29T00:49:28.696Z,18.70
2023-07-29T00:57:35.281Z,18.40
2023-07-29T01:00:11.613Z,18.60
2023-07-29T01:02:42.212Z,18.00
2023-07-29T01:05:16.717Z,18.50
2023-07-29T01:08:03.182Z,18.50
2023-07-29T01:10:54.370Z,18.50
2023-07-29T01:13:49.723Z,18.60
2023-07-29T01:16:40.123Z,18.60
2023-07-29T01:22:33.119Z,18.70
2023-07-29T01:25:07.778Z,18.50
2023-07-29T01:27:38.717Z,18.20
2023-07-29T01:30:17.190Z,18.60
2023-07-29T01:33:04.004Z,18.70
2023-07-29T01:35:46.151Z,18.70
2023-07-29T01:38:25.657Z,18.80
2023-07-29T01:41:05.140Z,18.40
2023-07-29T01:43:34.516Z,18.80
2023-07-29T01:46:06.401Z,18.60
2023-07-29T01:48:37.204Z,18.70
2023-07-29T01:51:21.894Z,18.50
2023-07-29T01:53:52.949Z,18.80
2023-07-29T01:56:24.927Z,18.40
2023-07-29T01:58:55.533Z,18.60
2023-07-29T02:01:27.385Z,18.70
2023-07-29T02:03:57.249Z,18.80
2023-07-29T02:06:28.820Z,18.90
2023-07-29T02:08:58.685Z,18.60
2023-07-29T02:11:31.202Z,18.90
2023-07-29T02:14:01.449Z,18.90
2023-07-29T02:16:32.566Z,18.80
2023-07-29T02:19:03.389Z,18.20
2023-07-29T02:21:35.042Z,18.50
2023-07-29T02:24:04.120Z,18.70
2023-07-29T02:26:35.805Z,18.80
2023-07-29T02:29:07.326Z,18.60
2023-07-29T02:31:39.244Z,18.60
2023-07-29T02:34:08.856Z,18.30
2023-07-29T02:36:38.307Z,18.80
2023-07-29T02:39:08.432Z,18.90
2023-07-29T02:41:43.833Z,18.90
2023-07-29T02:44:15.316Z,18.50
2023-07-29T02:46:45.550Z,18.80
2023-07-29T02:49:14.565Z,18.80
2023-07-29T02:51:46.607Z,18.40
2023-07-29T02:54:17.106Z,18.40
2023-07-29T02:56:52.138Z,18.80
2023-07-29T02:59:26.205Z,18.70
2023-07-29T03:01:56.816Z,18.70
2023-07-29T03:04:34.622Z,18.40
2023-07-29T03:07:03.697Z,18.20
2023-07-29T03:09:43.336Z,18.30
2023-07-29T03:12:17.329Z,18.20
2023-07-29T03:14:50.593Z,17.90
2023-07-29T03:17:23.600Z,18.20
2023-07-29T03:19:56.115Z,17.50
2023-07-29T03:25:30.113Z,18.30
2023-07-29T03:33:48.123Z,18.10
2023-07-29T03:36:20.753Z,18.20
2023-07-29T03:39:10.636Z,18.20
2023-07-29T03:41:42.065Z,18.20
2023-07-29T03:44:21.296Z,18.30
2023-07-29T03:46:50.921Z,18.40
2023-07-29T03:52:21.822Z,18.20
2023-07-29T03:54:55.747Z,17.90
2023-07-29T03:57:33.369Z,17.80
2023-07-29T04:00:07.475Z,18.10
2023-07-29T04:02:39.732Z,17.90
2023-07-29T04:05:20.940Z,18.20
2023-07-29T04:07:57.411Z,18.30
2023-07-29T04:10:28.840Z,18.20
2023-07-29T04:12:58.318Z,18.20
2023-07-29T04:15:28.423Z,18.20
2023-07-29T04:20:45.527Z,17.80
2023-07-29T04:23:19.968Z,17.40
2023-07-29T04:25:51.459Z,17.90
2023-07-29T04:28:21.127Z,17.80
2023-07-29T04:30:49.996Z,18.00
2023-07-29T04:33:20.917Z,18.50
2023-07-29T04:35:51.742Z,18.90
2023-07-29T04:38:22.984Z,18.90
2023-07-29T04:40:53.931Z,18.90
2023-07-29T04:43:23.492Z,18.40
2023-07-29T04:45:54.469Z,18.60
2023-07-29T04:48:25.741Z,19.10
2023-07-29T04:50:55.738Z,19.10
2023-07-29T04:53:28.245Z,19.10
2023-07-29T04:55:59.496Z,19.30
2023-07-29T04:58:35.722Z,19.20
2023-07-29T05:01:07.759Z,19.20
2023-07-29T05:03:38.538Z,19.10
2023-07-29T05:06:09.041Z,19.10
2023-07-29T05:08:42.533Z,18.50
2023-07-29T05:11:12.250Z,19.10
2023-07-29T05:13:43.976Z,18.90
2023-07-29T05:16:14.190Z,18.90
2023-07-29T05:18:44.462Z,19.00
2023-07-29T05:21:18.588Z,18.90
2023-07-29T05:23:51.504Z,17.80
2023-07-29T05:26:21.547Z,18.50
2023-07-29T05:28:51.683Z,18.50
2023-07-29T05:31:23.257Z,18.70
2023-07-29T05:33:53.920Z,18.60
2023-07-29T05:36:23.410Z,18.60
2023-07-29T05:38:55.303Z,18.70
2023-07-29T05:41:29.554Z,18.60
2023-07-29T05:43:59.452Z,18.00
2023-07-29T05:46:40.810Z,18.70
2023-07-29T05:49:10.793Z,18.60
2023-07-29T05:51:40.842Z,18.30
2023-07-29T05:54:15.390Z,18.90
2023-07-29T05:56:46.555Z,19.10
2023-07-29T05:59:18.346Z,19.10
2023-07-29T06:01:48.310Z,19.10
2023-07-29T06:04:18.414Z,19.20
2023-07-29T06:06:47.584Z,18.60
2023-07-29T06:09:18.303Z,19.10
2023-07-29T06:11:48.385Z,19.30
2023-07-29T06:14:21.619Z,19.40
2023-07-29T06:16:50.584Z,18.60
2023-07-29T06:19:25.415Z,19.10
2023-07-29T06:47:37.486Z,19.30
2023-07-29T06:50:09.350Z,19.40
2023-07-29T06:52:39.699Z,19.40
2023-07-29T06:55:09.339Z,19.20
2023-07-29T06:57:39.349Z,19.20
2023-07-29T07:00:12.382Z,19.40
2023-07-29T07:02:41.740Z,19.60
2023-07-29T07:05:14.112Z,19.30
2023-07-29T07:07:44.094Z,20.00
2023-07-29T07:10:13.368Z,20.10
2023-07-29T07:12:42.878Z,20.50
2023-07-29T07:15:12.825Z,20.60
2023-07-29T07:17:42.995Z,20.60
2023-07-29T07:20:14.180Z,20.60
2023-07-29T07:22:43.564Z,20.50
2023-07-29T07:25:12.750Z,21.00
2023-07-29T07:27:45.268Z,21.10
2023-07-29T07:30:15.534Z,21.20
2023-07-29T07:32:46.684Z,21.30
2023-07-29T07:35:17.725Z,21.40
2023-07-29T07:37:49.314Z,21.30
2023-07-29T07:40:18.175Z,21.40
2023-07-29T07:45:47.029Z,21.30
2023-07-29T07:48:17.973Z,21.30
2023-07-29T07:50:49.026Z,21.20
2023-07-29T07:53:19.532Z,21.20
2023-07-29T07:55:49.256Z,20.70
2023-07-29T07:58:18.768Z,20.60
2023-07-29T08:00:47.787Z,20.70
2023-07-29T08:03:16.824Z,20.40
2023-07-29T08:05:51.344Z,20.80
2023-07-29T08:08:20.522Z,20.40
2023-07-29T08:10:49.758Z,20.40
2023-07-29T08:13:18.612Z,20.40
2023-07-29T08:15:49.986Z,20.40
2023-07-29T08:18:19.690Z,19.90
2023-07-29T08:21:06.113Z,20.10
2023-07-29T08:23:38.010Z,19.60
2023-07-29T08:26:09.006Z,19.60
2023-07-29T08:28:40.162Z,19.70
2023-07-29T08:31:10.081Z,19.60
2023-07-29T08:33:39.150Z,19.90
2023-07-29T08:36:09.744Z,20.20
2023-07-29T08:38:38.604Z,19.80
2023-07-29T08:41:17.628Z,20.60
2023-07-29T08:44:04.307Z,20.80
2023-07-29T08:46:33.900Z,21.00
2023-07-29T08:49:04.276Z,21.20
2023-07-29T08:51:35.439Z,21.30
2023-07-29T08:54:06.970Z,21.40
2023-07-29T08:56:37.314Z,21.30
2023-07-29T08:59:07.070Z,21.40
2023-07-29T09:01:37.090Z,21.40
2023-07-29T09:04:08.226Z,21.70
2023-07-29T09:06:42.725Z,21.50
2023-07-29T09:09:11.949Z,21.60
2023-07-29T09:11:42.418Z,21.90
2023-07-29T09:14:13.211Z,21.20
2023-07-29T09:16:43.322Z,21.10
2023-07-29T09:19:13.260Z,21.00
2023-07-29T09:21:45.213Z,21.00
2023-07-29T09:24:24.274Z,21.00
2023-07-29T09:26:56.882Z,21.20
2023-07-29T09:29:30.218Z,21.40
2023-07-29T09:32:23.555Z,21.50
2023-07-29T09:34:53.044Z,21.30
2023-07-29T09:37:26.515Z,21.20
2023-07-29T09:40:00.694Z,20.90
2023-07-29T09:42:30.861Z,21.60
2023-07-29T09:45:00.421Z,21.70
2023-07-29T09:47:31.157Z,22.40
2023-07-29T09:50:03.434Z,21.80
2023-07-29T09:52:36.310Z,22.20
2023-07-29T09:55:07.678Z,23.30
2023-07-29T09:57:41.465Z,23.20
2023-07-29T10:00:15.337Z,23.20
2023-07-29T10:02:47.663Z,23.20
2023-07-29T10:05:21.617Z,23.00
2023-07-29T10:07:58.000Z,23.10
2023-07-29T10:10:27.586Z,23.40
2023-07-29T10:13:02.057Z,24.30
2023-07-29T10:15:35.965Z,24.20
2023-07-29T10:18:06.991Z,24.70
2023-07-29T10:20:38.168Z,25.10
2023-07-29T10:23:31.901Z,24.40
2023-07-29T10:26:28.178Z,25.40
2023-07-29T10:32:03.112Z,25.30
2023-07-29T10:34:46.148Z,26.50
2023-07-29T10:37:15.945Z,26.00
2023-07-29T10:39:56.689Z,26.10
2023-07-29T10:42:26.121Z,25.70
2023-07-29T10:44:56.428Z,26.10
2023-07-29T10:47:29.837Z,25.20
2023-07-29T10:50:01.327Z,26.00
2023-07-29T10:52:44.191Z,25.50
2023-07-29T10:55:38.296Z,26.30
2023-07-29T10:58:16.806Z,26.50
2023-07-29T11:00:46.872Z,26.10
2023-07-29T11:03:18.561Z,26.70
2023-07-29T11:05:53.623Z,25.90
2023-07-29T11:08:26.505Z,26.60
2023-07-29T11:11:10.594Z,26.70
2023-07-29T11:13:43.737Z,27.40
2023-07-29T11:16:18.579Z,27.60
2023-07-29T11:18:52.403Z,27.50
2023-07-29T11:21:22.273Z,28.00
2023-07-29T11:23:56.989Z,27.50
2023-07-29T11:26:28.170Z,28.40
2023-07-29T11:28:58.651Z,28.60
2023-07-29T11:31:42.508Z,28.30
2023-07-29T11:34:12.086Z,27.60
2023-07-29T11:36:41.320Z,27.00
2023-07-29T11:39:14.404Z,26.90
2023-07-29T11:41:51.934Z,26.00
2023-07-29T11:44:22.664Z,24.70
2023-07-29T11:46:54.849Z,24.10
2023-07-29T11:52:26.841Z,23.40
2023-07-29T11:55:09.639Z,23.00
2023-07-29T11:57:42.900Z,22.90
2023-07-29T12:00:16.007Z,23.10
2023-07-29T12:02:51.704Z,23.10
2023-07-29T12:05:25.505Z,23.30
2023-07-29T12:07:54.862Z,23.00
2023-07-29T12:10:24.846Z,23.80
2023-07-29T12:12:56.857Z,24.10
2023-07-29T12:15:28.161Z,23.80
2023-07-29T12:18:03.644Z,24.60
2023-07-29T12:20:34.860Z,24.70
2023-07-29T12:23:07.449Z,24.90
2023-07-29T12:25:37.708Z,24.70
2023-07-29T12:28:09.802Z,25.80
2023-07-29T12:30:44.717Z,26.20
2023-07-29T12:33:33.474Z,26.70
2023-07-29T12:36:03.516Z,26.00
2023-07-29T12:38:35.459Z,27.10
2023-07-29T12:41:06.078Z,26.20
2023-07-29T12:44:11.071Z,27.40
2023-07-29T12:46:53.694Z,27.40
2023-07-29T12:49:23.814Z,27.40
2023-07-29T12:51:53.514Z,27.20
2023-07-29T12:54:22.524Z,28.10
2023-07-29T12:57:05.253Z,28.60
2023-07-29T12:59:48.197Z,28.60
2023-07-29T13:02:21.538Z,27.90
2023-07-29T13:04:51.317Z,28.50
2023-07-29T13:07:21.370Z,28.80
2023-07-29T13:09:52.006Z,28.40
2023-07-29T13:12:21.642Z,28.90
2023-07-29T13:14:52.587Z,29.30
2023-07-29T13:17:23.513Z,29.30
2023-07-29T13:19:53.599Z,29.00
2023-07-29T13:22:26.168Z,28.90
2023-07-29T13:24:55.557Z,28.30
2023-07-29T13:27:25.704Z,28.10
2023-07-29T13:29:59.588Z,27.80
2023-07-29T13:32:36.502Z,27.60
2023-07-29T13:35:06.638Z,27.30
2023-07-29T13:40:25.486Z,26.60
2023-07-29T13:43:08.857Z,26.30
2023-07-29T13:46:08.919Z,26.40
2023-07-29T13:48:43.088Z,26.20
2023-07-29T13:54:23.248Z,26.00
2023-07-29T13:57:07.932Z,26.10
2023-07-29T14:23:44.821Z,28.40
2023-07-29T14:26:27.340Z,28.80
2023-07-29T14:29:20.606Z,28.50
2023-07-29T14:41:37.184Z,29.10
2023-07-29T14:44:23.985Z,29.40
2023-07-29T14:49:52.660Z,28.70
2023-07-29T15:04:25.511Z,28.20
2023-07-29T15:06:56.372Z,27.70
2023-07-29T15:09:33.568Z,27.80
2023-07-29T15:12:02.594Z,27.80
2023-07-29T15:14:34.007Z,28.00
2023-07-29T15:17:09.143Z,28.10
2023-07-29T15:19:54.100Z,29.30
2023-07-29T15:22:39.031Z,29.40
2023-07-29T15:25:12.919Z,29.20
2023-07-29T15:27:54.201Z,29.10
2023-07-29T16:01:00.344Z,27.60
2023-07-29T16:03:53.664Z,27.70
2023-07-29T16:06:55.151Z,27.90
2023-07-29T16:10:17.202Z,27.90
2023-07-29T16:13:09.915Z,28.10
2023-07-29T16:16:06.177Z,28.40
2023-07-29T16:18:58.766Z,28.50
2023-07-29T16:21:41.622Z,28.40
2023-07-29T16:24:21.989Z,28.70
2023-07-29T16:27:09.426Z,28.60
2023-07-29T16:29:39.873Z,27.90
2023-07-29T16:32:09.839Z,28.40
2023-07-29T17:25:36.353Z,27.10
2023-07-29T18:19:57.892Z,24.20
2023-07-29T18:23:04.455Z,24.00
2023-07-29T18:25:42.287Z,23.90
2023-07-29T18:29:03.320Z,23.60
2023-07-29T18:41:51.287Z,22.30
2023-07-29T18:44:46.594Z,22.50
2023-07-29T18:48:03.564Z,22.20
2023-07-29T18:54:08.163Z,21.90
2023-07-29T19:00:02.767Z,21.90
2023-07-29T19:04:00.022Z,21.90
2023-07-29T19:16:14.427Z,21.50
2023-07-29T19:25:19.457Z,21.60
2023-07-29T19:27:58.855Z,21.60
2023-07-29T19:33:56.040Z,21.30
2023-07-29T19:36:41.483Z,21.40
2023-07-29T19:42:34.550Z,21.30
2023-07-29T19:45:10.676Z,19.50
2023-07-29T19:48:03.968Z,21.10
2023-07-29T19:57:27.049Z,21.10
2023-07-29T20:00:32.292Z,21.00
2023-07-29T20:09:25.126Z,20.60
2023-07-29T20:12:05.337Z,20.70
2023-07-29T20:14:48.752Z,20.80
2023-07-29T20:17:25.966Z,20.70
2023-07-29T20:27:06.328Z,20.70
2023-07-29T20:30:07.629Z,20.50
2023-07-29T20:36:13.080Z,20.40
2023-07-29T21:24:24.669Z,20.10
2023-07-29T21:31:21.347Z,20.00
2023-07-29T22:06:16.149Z,20.10
2023-07-29T22:10:13.823Z,20.10
